createdAt,value
2022-08-01T00:00:50.400Z,99012.38
2022-08-01T00:03:18.126Z,99010.97
2022-08-01T00:05:46.338Z,99014.94
2022-08-01T00:08:14.035Z,98999.28
2022-08-01T00:10:41.806Z,99014.69
2022-08-01T00:13:10.868Z,99012.28
2022-08-01T00:15:38.579Z,99012.28
2022-08-01T00:18:06.335Z,99013.28
2022-08-01T00:20:34.030Z,99014.13
2022-08-01T00:23:04.267Z,99015.53
2022-08-01T00:25:33.897Z,99024.72
2022-08-01T00:28:02.168Z,99020.63
2022-08-01T00:30:33.179Z,99020.34
2022-08-01T00:33:00.889Z,99020.47
2022-08-01T00:35:28.617Z,99013.13
2022-08-01T00:37:56.579Z,99020.63
2022-08-01T00:40:24.339Z,99027.53
2022-08-01T00:42:52.090Z,99031.50
2022-08-01T00:45:19.803Z,99026.34
2022-08-01T00:47:48.941Z,99031.56
2022-08-01T00:50:22.954Z,99030.72
2022-08-01T00:52:52.919Z,99027.88
2022-08-01T00:55:21.384Z,99028.28
2022-08-01T00:58:02.784Z,99027.28
2022-08-01T01:00:34.827Z,99027.44
2022-08-01T01:03:11.442Z,99025.16
2022-08-01T01:05:45.128Z,99025.72
2022-08-01T01:08:16.388Z,99025.72
2022-08-01T01:10:53.121Z,99038.63
2022-08-01T01:13:25.590Z,99035.25
2022-08-01T01:15:57.410Z,99041.41
2022-08-01T01:18:29.501Z,99032.94
2022-08-01T01:21:02.522Z,99040.53
2022-08-01T01:23:42.385Z,99037.22
2022-08-01T01:26:25.820Z,99042.84
2022-08-01T01:29:01.957Z,99037.50
2022-08-01T01:31:29.854Z,99034.09
2022-08-01T01:33:59.037Z,99037.75
2022-08-01T01:36:27.605Z,99038.16
2022-08-01T01:38:56.294Z,99039.72
2022-08-01T01:41:24.403Z,99033.53
2022-08-01T01:43:52.586Z,99040.97
2022-08-01T01:46:27.843Z,99036.06
2022-08-01T01:48:56.448Z,99036.47
2022-08-01T01:51:25.217Z,99047.19
2022-08-01T01:53:54.894Z,99048.41
2022-08-01T01:56:23.045Z,99042.94
2022-08-01T01:58:52.700Z,99057.56
2022-08-01T02:01:58.910Z,99047.44
2022-08-01T02:04:10.206Z,99041.94
2022-08-01T02:06:39.630Z,99056.72
2022-08-01T02:09:07.601Z,99047.72
2022-08-01T02:11:37.398Z,99046.94
2022-08-01T02:14:25.734Z,99043.59
2022-08-01T02:16:57.021Z,99057.78
2022-08-01T02:19:24.681Z,99058.03
2022-08-01T02:21:54.783Z,99044.47
2022-08-01T02:24:30.282Z,99051.44
2022-08-01T02:27:00.943Z,99055.03
2022-08-01T02:29:35.484Z,99050.34
2022-08-01T02:32:06.483Z,99059.28
2022-08-01T02:34:35.254Z,99055.28
2022-08-01T02:37:03.451Z,99059.06
2022-08-01T02:39:32.516Z,99057.63
2022-08-01T02:42:02.798Z,99057.69
2022-08-01T02:44:33.577Z,99056.97
2022-08-01T02:47:05.652Z,99060.81
2022-08-01T02:49:35.264Z,99054.50
2022-08-01T02:52:04.115Z,99051.81
2022-08-01T02:54:32.715Z,99050.97
2022-08-01T02:57:01.308Z,99050.97
2022-08-01T02:59:30.796Z,99041.50
2022-08-01T03:02:00.062Z,99047.84
2022-08-01T03:04:30.253Z,99042.75
2022-08-01T03:06:59.422Z,99048.81
2022-08-01T03:09:27.811Z,99046.53
2022-08-01T03:11:59.677Z,99044.22
2022-08-01T03:14:28.007Z,99036.06
2022-08-01T03:16:57.043Z,99029.06
2022-08-01T03:19:26.612Z,99031.66
2022-08-01T03:21:56.744Z,99029.44
2022-08-01T03:24:25.795Z,99035.06
2022-08-01T03:26:54.588Z,99029.13
2022-08-01T03:29:26.644Z,99031.59
2022-08-01T03:31:54.764Z,99033.91
2022-08-01T03:34:22.600Z,99037.06
2022-08-01T03:36:52.030Z,99040.47
2022-08-01T03:39:23.083Z,99046.19
2022-08-01T03:41:56.812Z,99050.69
2022-08-01T03:44:27.021Z,99054.47
2022-08-01T03:46:59.005Z,99061.38
2022-08-01T03:49:31.607Z,99062.06
2022-08-01T03:52:01.250Z,99064.28
2022-08-01T03:54:33.584Z,99066.97
2022-08-01T03:57:02.286Z,99068.16
2022-08-01T03:59:30.915Z,99062.56
2022-08-01T04:01:58.652Z,99062.47
2022-08-01T04:04:26.585Z,99064.00
2022-08-01T04:06:55.484Z,99053.81
2022-08-01T04:09:23.603Z,99056.25
2022-08-01T04:11:52.646Z,99065.72
2022-08-01T04:14:20.429Z,99067.53
2022-08-01T04:16:48.155Z,99072.25
2022-08-01T04:19:16.353Z,99062.78
2022-08-01T04:21:43.980Z,99067.03
2022-08-01T04:24:15.260Z,99060.72
2022-08-01T04:26:45.864Z,99079.56
2022-08-01T04:29:16.225Z,99069.22
2022-08-01T04:31:46.371Z,99076.41
2022-08-01T04:34:15.158Z,99081.97
2022-08-01T04:36:43.869Z,99077.00
2022-08-01T04:39:11.811Z,99079.47
2022-08-01T04:41:40.435Z,99085.06
2022-08-01T04:44:11.315Z,99094.16
2022-08-01T04:46:41.004Z,99097.19
2022-08-01T04:49:09.840Z,99098.75
2022-08-01T04:51:37.870Z,99104.47
2022-08-01T04:54:08.326Z,99107.84
2022-08-01T04:56:36.404Z,99106.38
2022-08-01T04:59:21.634Z,99093.47
2022-08-01T05:01:53.823Z,99101.09
2022-08-01T05:04:21.550Z,99103.50
2022-08-01T05:06:49.227Z,99106.31
2022-08-01T05:09:16.975Z,99098.03
2022-08-01T05:11:44.753Z,99111.66
2022-08-01T05:14:12.396Z,99097.44
2022-08-01T05:16:40.103Z,99106.56
2022-08-01T05:19:09.743Z,99105.84
2022-08-01T05:21:38.286Z,99108.84
2022-08-01T05:24:06.564Z,99118.47
2022-08-01T05:26:34.270Z,99115.81
2022-08-01T05:29:04.594Z,99115.19
2022-08-01T05:31:35.110Z,99124.69
2022-08-01T05:34:02.936Z,99110.28
2022-08-01T05:36:32.032Z,99116.41
2022-08-01T05:38:59.671Z,99126.47
2022-08-01T05:41:27.436Z,99130.38
2022-08-01T05:43:55.096Z,99133.66
2022-08-01T05:46:22.780Z,99140.44
2022-08-01T05:48:54.130Z,99135.78
2022-08-01T05:51:21.864Z,99131.69
2022-08-01T05:53:51.046Z,99127.38
2022-08-01T05:56:18.723Z,99127.59
2022-08-01T05:58:46.507Z,99130.13
2022-08-01T06:01:14.186Z,99132.50
2022-08-01T06:03:45.336Z,99136.97
2022-08-01T06:06:13.083Z,99138.63
2022-08-01T06:08:40.891Z,99139.28
2022-08-01T06:11:10.026Z,99135.38
2022-08-01T06:13:48.236Z,99140.06
2022-08-01T06:16:17.150Z,99139.41
2022-08-01T06:18:45.179Z,99150.13
2022-08-01T06:21:12.843Z,99147.75
2022-08-01T06:23:43.320Z,99152.25
2022-08-01T06:26:13.027Z,99148.88
2022-08-01T06:28:40.752Z,99155.97
2022-08-01T06:31:08.660Z,99163.88
2022-08-01T06:33:36.409Z,99159.41
2022-08-01T06:36:04.425Z,99157.31
2022-08-01T06:38:32.234Z,99159.03
2022-08-01T06:41:00.114Z,99155.09
2022-08-01T06:43:29.192Z,99154.81
2022-08-01T06:45:57.089Z,99155.84
2022-08-01T06:48:24.884Z,99159.09
2022-08-01T06:51:08.777Z,99156.53
2022-08-01T06:53:37.389Z,99149.63
2022-08-01T06:56:05.997Z,99159.22
2022-08-01T06:58:35.810Z,99157.84
2022-08-01T07:01:06.902Z,99156.44
2022-08-01T07:03:53.255Z,99154.88
2022-08-01T07:06:22.063Z,99153.16
2022-08-01T07:08:49.803Z,99149.75
2022-08-01T07:11:17.854Z,99148.63
2022-08-01T07:13:47.487Z,99145.13
2022-08-01T07:16:15.375Z,99146.25
2022-08-01T07:18:43.431Z,99142.28
2022-08-01T07:21:18.548Z,99138.75
2022-08-01T07:23:59.209Z,99146.25
2022-08-01T07:26:28.602Z,99144.66
2022-08-01T07:28:57.754Z,99155.88
2022-08-01T07:31:28.347Z,99134.63
2022-08-01T07:33:58.508Z,99137.56
2022-08-01T07:36:26.276Z,99126.91
2022-08-01T07:38:54.166Z,99143.72
2022-08-01T07:41:22.100Z,99141.47
2022-08-01T07:44:11.262Z,99137.63
2022-08-01T07:46:39.018Z,99138.53
2022-08-01T07:49:06.884Z,99134.25
2022-08-01T07:51:37.532Z,99138.00
2022-08-01T07:54:05.514Z,99140.69
2022-08-01T07:56:33.948Z,99143.41
2022-08-01T07:59:01.793Z,99145.53
2022-08-01T08:01:31.190Z,99146.72
2022-08-01T08:03:58.820Z,99151.22
2022-08-01T08:06:27.119Z,99149.22
2022-08-01T08:08:55.163Z,99141.03
2022-08-01T08:11:22.912Z,99147.31
2022-08-01T08:13:50.622Z,99156.75
2022-08-01T08:16:18.627Z,99160.44
2022-08-01T08:18:50.618Z,99158.84
2022-08-01T08:21:18.325Z,99165.47
2022-08-01T08:24:03.861Z,99159.09
2022-08-01T08:26:31.886Z,99161.78
2022-08-01T08:28:59.720Z,99165.25
2022-08-01T08:31:51.889Z,99160.13
2022-08-01T08:34:16.862Z,99163.28
2022-08-01T08:36:47.938Z,99159.09
2022-08-01T08:39:16.384Z,99166.09
2022-08-01T08:41:49.730Z,99160.03
2022-08-01T08:44:18.301Z,99153.66
2022-08-01T08:46:47.831Z,99155.66
2022-08-01T08:49:19.422Z,99150.47
2022-08-01T08:51:49.905Z,99148.31
2022-08-01T08:54:19.049Z,99150.19
2022-08-01T08:56:48.375Z,99133.59
2022-08-01T08:59:16.481Z,99138.22
2022-08-01T09:01:44.653Z,99134.41
2022-08-01T09:04:13.405Z,99133.72
2022-08-01T09:06:42.679Z,99141.50
2022-08-01T09:09:10.734Z,99132.31
2022-08-01T09:11:39.142Z,99134.59
2022-08-01T09:14:10.162Z,99127.31
2022-08-01T09:16:47.955Z,99125.56
2022-08-01T09:19:39.794Z,99130.28
2022-08-01T09:22:09.475Z,99137.50
2022-08-01T09:24:37.798Z,99137.66
2022-08-01T09:27:19.713Z,99142.94
2022-08-01T09:29:49.955Z,99137.81
2022-08-01T09:32:34.311Z,99144.34
2022-08-01T09:35:24.519Z,99149.91
2022-08-01T09:40:55.944Z,99138.31
2022-08-01T09:43:27.563Z,99141.72
2022-08-01T09:45:55.836Z,99143.06
2022-08-01T09:48:28.685Z,99142.03
2022-08-01T09:51:04.473Z,99138.63
2022-08-01T09:53:51.443Z,99138.28
2022-08-01T09:56:23.093Z,99143.38
2022-08-01T09:59:00.613Z,99143.19
2022-08-01T10:01:36.760Z,99142.03
2022-08-01T10:04:11.854Z,99142.88
2022-08-01T10:06:41.517Z,99146.09
2022-08-01T10:09:09.578Z,99145.75
2022-08-01T10:11:40.043Z,99139.81
2022-08-01T10:14:08.595Z,99136.47
2022-08-01T10:16:37.223Z,99132.06
2022-08-01T10:19:14.680Z,99129.22
2022-08-01T10:21:56.113Z,99129.50
2022-08-01T10:24:29.935Z,99120.50
2022-08-01T10:27:05.862Z,99127.78
2022-08-01T10:29:46.097Z,99124.28
2022-08-01T10:32:15.354Z,99117.50
2022-08-01T10:34:44.977Z,99119.69
2022-08-01T10:37:14.985Z,99115.63
2022-08-01T10:39:43.494Z,99120.06
2022-08-01T10:42:15.719Z,99120.41
2022-08-01T10:44:47.175Z,99111.41
2022-08-01T10:47:23.630Z,99105.63
2022-08-01T10:49:59.971Z,99105.03
2022-08-01T10:52:27.995Z,99106.97
2022-08-01T10:55:04.504Z,99106.16
2022-08-01T10:57:48.863Z,99108.91
2022-08-01T11:00:21.497Z,99110.66
2022-08-01T11:03:01.489Z,99104.13
2022-08-01T11:05:30.607Z,99103.22
2022-08-01T11:08:03.475Z,99088.69
2022-08-01T11:10:37.384Z,99093.00
2022-08-01T11:13:09.622Z,99090.41
2022-08-01T11:15:37.686Z,99094.94
2022-08-01T11:18:33.844Z,99094.03
2022-08-01T11:21:58.251Z,99097.53
2022-08-01T11:23:54.422Z,99096.06
2022-08-01T11:26:29.373Z,99087.22
2022-08-01T11:29:23.509Z,99084.31
2022-08-01T11:31:52.835Z,99085.44
2022-08-01T11:34:20.924Z,99080.53
2022-08-01T11:36:59.066Z,99078.19
2022-08-01T11:39:27.282Z,99078.47
2022-08-01T11:41:55.784Z,99075.22
2022-08-01T11:44:28.213Z,99067.19
2022-08-01T11:47:08.713Z,99056.56
2022-08-01T11:49:49.803Z,99062.19
2022-08-01T11:52:20.695Z,99063.13
2022-08-01T11:54:50.351Z,99056.56
2022-08-01T11:57:23.131Z,99056.50
2022-08-01T12:00:03.293Z,99056.75
2022-08-01T12:02:34.859Z,99060.97
2022-08-01T12:05:04.943Z,99060.91
2022-08-01T12:07:35.567Z,99053.50
2022-08-01T12:10:05.550Z,99047.88
2022-08-01T12:12:34.148Z,99051.31
2022-08-01T12:15:05.325Z,99049.63
2022-08-01T12:17:35.654Z,99053.13
2022-08-01T12:20:04.814Z,99052.69
2022-08-01T12:22:32.739Z,99047.94
2022-08-01T12:25:07.448Z,99050.56
2022-08-01T12:27:36.229Z,99047.56
2022-08-01T12:30:07.452Z,99043.41
2022-08-01T12:32:37.513Z,99049.69
2022-08-01T12:35:07.058Z,99047.91
2022-08-01T12:37:37.387Z,99038.91
2022-08-01T12:40:12.181Z,99039.03
2022-08-01T12:42:40.659Z,99043.03
2022-08-01T12:45:11.782Z,99038.44
2022-08-01T12:47:40.527Z,99039.19
2022-08-01T12:50:09.736Z,99039.81
2022-08-01T12:52:37.515Z,99037.00
2022-08-01T12:55:14.086Z,99034.69
2022-08-01T12:57:45.513Z,99036.78
2022-08-01T13:00:20.369Z,99033.66
2022-08-01T13:02:49.057Z,99034.88
2022-08-01T13:05:17.781Z,99032.94
2022-08-01T13:07:48.476Z,99030.47
2022-08-01T13:10:17.368Z,99035.28
2022-08-01T13:12:54.389Z,99026.50
2022-08-01T13:15:29.127Z,99034.66
2022-08-01T13:17:57.045Z,99040.19
2022-08-01T13:20:33.864Z,99032.22
2022-08-01T13:23:15.706Z,99026.00
2022-08-01T13:25:51.024Z,99025.63
2022-08-01T13:28:23.876Z,99021.44
2022-08-01T13:30:58.152Z,99025.34
2022-08-01T13:33:26.948Z,99022.47
2022-08-01T13:35:58.680Z,99022.59
2022-08-01T13:38:40.276Z,99025.41
2022-08-01T13:41:07.964Z,99027.91
2022-08-01T13:43:58.149Z,99027.09
2022-08-01T13:46:24.931Z,99031.69
2022-08-01T13:48:53.323Z,99022.59
2022-08-01T13:51:22.598Z,99021.19
2022-08-01T13:53:50.354Z,99030.25
2022-08-01T13:56:18.313Z,99030.44
2022-08-01T13:58:46.777Z,99035.41
2022-08-01T14:01:15.084Z,99034.19
2022-08-01T14:03:44.137Z,99036.31
2022-08-01T14:06:12.196Z,99035.81
2022-08-01T14:08:39.901Z,99034.28
2022-08-01T14:11:13.762Z,99029.50
2022-08-01T14:13:46.710Z,99028.31
2022-08-01T14:16:14.699Z,99032.31
2022-08-01T14:18:44.485Z,99039.91
2022-08-01T14:21:12.227Z,99037.00
2022-08-01T14:23:40.169Z,99041.41
2022-08-01T14:26:12.082Z,99038.66
2022-08-01T14:28:40.804Z,99037.56
2022-08-01T14:31:08.807Z,99036.94
2022-08-01T14:33:36.780Z,99037.16
2022-08-01T14:36:30.313Z,99037.56
2022-08-01T14:38:54.469Z,99033.69
2022-08-01T14:41:28.615Z,99032.13
2022-08-01T14:43:58.428Z,99038.25
2022-08-01T14:46:26.244Z,99031.81
2022-08-01T14:48:53.978Z,99036.00
2022-08-01T14:51:23.012Z,99027.81
2022-08-01T14:53:53.297Z,99029.31
2022-08-01T14:56:21.101Z,99030.44
2022-08-01T14:58:48.781Z,99032.38
2022-08-01T15:01:17.319Z,99036.47
2022-08-01T15:03:45.122Z,99040.81
2022-08-01T15:06:13.521Z,99033.22
2022-08-01T15:08:42.732Z,99034.22
2022-08-01T15:11:10.644Z,99030.84
2022-08-01T15:13:42.352Z,99032.22
2022-08-01T15:16:11.991Z,99022.84
2022-08-01T15:18:40.210Z,99034.09
2022-08-01T15:21:07.910Z,99039.34
2022-08-01T15:23:35.568Z,99038.25
2022-08-01T15:26:04.790Z,99034.16
2022-08-01T15:28:32.629Z,99029.28
2022-08-01T15:31:00.444Z,99037.72
2022-08-01T15:33:28.253Z,99041.63
2022-08-01T15:35:56.187Z,99045.69
2022-08-01T15:38:25.219Z,99045.19
2022-08-01T15:40:53.047Z,99045.66
2022-08-01T15:43:22.199Z,99051.31
2022-08-01T15:45:50.619Z,99051.13
2022-08-01T15:48:18.897Z,99042.31
2022-08-01T15:50:48.251Z,99048.31
2022-08-01T15:53:16.177Z,99046.94
2022-08-01T15:55:48.934Z,99051.13
2022-08-01T15:58:20.369Z,99050.47
2022-08-01T16:00:49.497Z,99048.94
2022-08-01T16:03:17.270Z,99050.31
2022-08-01T16:05:45.271Z,99047.09
2022-08-01T16:08:13.314Z,99053.53
2022-08-01T16:10:41.401Z,99053.53
2022-08-01T16:13:09.368Z,99054.19
2022-08-01T16:15:38.253Z,99056.22
2022-08-01T16:18:08.404Z,99061.28
2022-08-01T16:20:40.190Z,99048.97
2022-08-01T16:23:12.441Z,99052.16
2022-08-01T16:25:40.297Z,99052.28
2022-08-01T16:28:09.773Z,99049.97
2022-08-01T16:30:37.597Z,99052.16
2022-08-01T16:33:38.923Z,99053.00
2022-08-01T16:35:58.655Z,99050.81
2022-08-01T16:38:27.169Z,99053.84
2022-08-01T16:40:55.533Z,99041.19
2022-08-01T16:43:23.959Z,99037.97
2022-08-01T16:45:51.802Z,99040.31
2022-08-01T16:48:20.897Z,99037.97
2022-08-01T16:50:50.245Z,99040.31
2022-08-01T16:53:18.876Z,99040.31
2022-08-01T16:55:49.696Z,99048.25
2022-08-01T16:58:27.320Z,99052.66
2022-08-01T17:00:57.029Z,99041.16
2022-08-01T17:03:46.981Z,99042.84
2022-08-01T17:06:14.947Z,99043.00
2022-08-01T17:08:47.134Z,99051.13
2022-08-01T17:11:15.462Z,99051.81
2022-08-01T17:13:43.185Z,99062.28
2022-08-01T17:16:11.416Z,99058.72
2022-08-01T17:18:40.452Z,99057.03
2022-08-01T17:21:08.106Z,99066.00
2022-08-01T17:23:36.016Z,99068.88
2022-08-01T17:26:03.767Z,99070.06
2022-08-01T17:28:31.472Z,99068.03
2022-08-01T17:30:59.271Z,99065.34
2022-08-01T17:33:45.116Z,99067.88
2022-08-01T17:36:17.626Z,99063.31
2022-08-01T17:38:45.427Z,99057.56
2022-08-01T17:41:13.105Z,99067.88
2022-08-01T17:43:40.826Z,99060.94
2022-08-01T17:46:08.511Z,99057.88
2022-08-01T17:48:36.245Z,99063.81
2022-08-01T17:51:03.911Z,99059.09
2022-08-01T17:53:33.535Z,99065.19
2022-08-01T17:56:02.472Z,99071.94
2022-08-01T17:58:49.892Z,99068.06
2022-08-01T18:01:19.561Z,99063.81
2022-08-01T18:03:47.696Z,99070.91
2022-08-01T18:06:17.349Z,99075.81
2022-08-01T18:08:47.777Z,99077.28
2022-08-01T18:11:16.596Z,99081.16
2022-08-01T18:13:44.661Z,99078.63
2022-08-01T18:16:12.981Z,99083.34
2022-08-01T18:18:41.613Z,99083.50
2022-08-01T18:21:09.649Z,99080.16
2022-08-01T18:23:37.333Z,99086.38
2022-08-01T18:26:08.382Z,99089.69
2022-08-01T18:28:41.806Z,99095.63
2022-08-01T18:31:16.486Z,99095.25
2022-08-01T18:33:44.253Z,99105.81
2022-08-01T18:36:29.960Z,99110.00
2022-08-01T18:39:00.350Z,99110.25
2022-08-01T18:41:30.845Z,99112.88
2022-08-01T18:44:03.918Z,99111.81
2022-08-01T18:46:35.394Z,99120.16
2022-08-01T18:49:03.120Z,99120.97
2022-08-01T18:51:30.775Z,99123.13
2022-08-01T18:53:58.669Z,99117.16
2022-08-01T18:56:26.652Z,99119.16
2022-08-01T18:58:55.783Z,99116.16
2022-08-01T19:01:23.685Z,99122.13
2022-08-01T19:03:51.439Z,99125.47
2022-08-01T19:06:19.108Z,99125.13
2022-08-01T19:08:47.045Z,99139.56
2022-08-01T19:11:14.834Z,99133.47
2022-08-01T19:13:42.620Z,99137.50
2022-08-01T19:16:11.731Z,99145.03
2022-08-01T19:18:40.105Z,99149.97
2022-08-01T19:21:07.920Z,99154.66
2022-08-01T19:23:53.498Z,99153.50
2022-08-01T19:26:23.579Z,99158.78
2022-08-01T19:28:53.482Z,99158.00
2022-08-01T19:31:26.674Z,99155.34
2022-08-01T19:33:55.141Z,99159.72
2022-08-01T19:36:22.988Z,99162.94
2022-08-01T19:38:51.116Z,99161.69
2022-08-01T19:41:19.647Z,99161.97
2022-08-01T19:43:47.955Z,99172.03
2022-08-01T19:46:17.643Z,99170.94
2022-08-01T19:48:53.695Z,99168.56
2022-08-01T19:51:33.180Z,99181.31
2022-08-01T19:54:05.775Z,99180.50
2022-08-01T19:56:39.627Z,99191.25
2022-08-01T19:59:08.943Z,99185.31
2022-08-01T20:01:37.492Z,99190.00
2022-08-01T20:04:07.083Z,99190.84
2022-08-01T20:06:35.338Z,99191.00
2022-08-01T20:09:03.646Z,99192.31
2022-08-01T20:11:31.567Z,99194.25
2022-08-01T20:14:00.441Z,99190.31
2022-08-01T20:16:29.330Z,99190.56
2022-08-01T20:18:57.400Z,99185.38
2022-08-01T20:21:27.773Z,99190.56
2022-08-01T20:24:02.445Z,99194.97
2022-08-01T20:26:31.653Z,99199.66
2022-08-01T20:29:00.259Z,99194.00
2022-08-01T20:31:34.670Z,99200.25
2022-08-01T20:34:15.891Z,99194.47
2022-08-01T20:36:54.746Z,99201.13
2022-08-01T20:39:24.767Z,99200.53
2022-08-01T20:41:59.676Z,99199.84
2022-08-01T20:44:31.392Z,99205.94
2022-08-01T20:47:00.076Z,99211.03
2022-08-01T20:49:28.386Z,99216.41
2022-08-01T20:51:57.482Z,99210.88
2022-08-01T20:54:26.654Z,99206.34
2022-08-01T20:56:59.583Z,99208.63
2022-08-01T20:59:55.160Z,99213.84
2022-08-01T21:02:35.768Z,99215.53
2022-08-01T21:05:06.108Z,99211.13
2022-08-01T21:07:40.416Z,99214.78
2022-08-01T21:10:09.437Z,99220.28
2022-08-01T21:12:45.893Z,99222.78
2022-08-01T21:15:16.367Z,99220.94
2022-08-01T21:17:46.886Z,99227.75
2022-08-01T21:20:15.997Z,99227.91
2022-08-01T21:22:54.062Z,99232.09
2022-08-01T21:25:25.754Z,99234.66
2022-08-01T21:27:54.182Z,99231.13
2022-08-01T21:30:25.154Z,99232.38
2022-08-01T21:32:53.178Z,99237.75
2022-08-01T21:35:23.694Z,99231.81
2022-08-01T21:37:53.524Z,99238.84
2022-08-01T21:40:22.074Z,99231.94
2022-08-01T21:42:51.592Z,99235.63
2022-08-01T21:45:21.834Z,99232.50
2022-08-01T21:47:50.475Z,99231.63
2022-08-01T21:50:18.485Z,99231.69
2022-08-01T21:52:48.921Z,99238.63
2022-08-01T21:55:35.054Z,99242.88
2022-08-01T21:58:14.677Z,99235.59
2022-08-01T22:00:44.939Z,99233.38
2022-08-01T22:03:22.213Z,99239.78
2022-08-01T22:05:51.636Z,99240.31
2022-08-01T22:08:25.149Z,99247.28
2022-08-01T22:10:59.240Z,99244.13
2022-08-01T22:13:26.916Z,99243.91
2022-08-01T22:15:55.528Z,99240.31
2022-08-01T22:18:23.840Z,99246.03
2022-08-01T22:20:52.532Z,99243.28
2022-08-01T22:23:22.691Z,99244.13
2022-08-01T22:25:55.667Z,99254.47
2022-08-01T22:28:25.076Z,99236.81
2022-08-01T22:30:54.493Z,99251.06
2022-08-01T22:33:22.339Z,99248.00
2022-08-01T22:35:52.765Z,99243.56
2022-08-01T22:38:22.473Z,99243.16
2022-08-01T22:40:51.577Z,99248.50
2022-08-01T22:43:27.199Z,99249.56
2022-08-01T22:46:01.903Z,99248.41
2022-08-01T22:48:34.904Z,99256.16
2022-08-01T22:51:07.490Z,99259.81
2022-08-01T22:53:39.602Z,99268.69
2022-08-01T22:56:10.885Z,99266.63
2022-08-01T22:58:41.185Z,99266.88
2022-08-01T23:01:11.889Z,99266.75
2022-08-01T23:03:41.636Z,99267.09
2022-08-01T23:06:12.706Z,99270.28
2022-08-01T23:08:41.590Z,99265.06
2022-08-01T23:11:09.460Z,99275.06
2022-08-01T23:13:37.474Z,99269.81
2022-08-01T23:16:07.083Z,99265.91
2022-08-01T23:18:35.116Z,99262.75
2022-08-01T23:21:03.741Z,99267.75
2022-08-01T23:23:33.031Z,99263.50
2022-08-01T23:26:01.578Z,99268.84
2022-08-01T23:28:30.328Z,99262.31
2022-08-01T23:30:59.099Z,99261.84
2022-08-01T23:33:28.192Z,99247.94
2022-08-01T23:35:55.896Z,99268.97
2022-08-01T23:38:23.612Z,99266.00
2022-08-01T23:40:51.288Z,99271.84
2022-08-01T23:43:19.041Z,99274.53
2022-08-01T23:46:03.652Z,99264.06
2022-08-01T23:48:34.940Z,99279.91
2022-08-01T23:51:03.164Z,99281.16
2022-08-01T23:53:31.462Z,99277.88
2022-08-01T23:56:02.706Z,99275.19
2022-08-01T23:58:31.406Z,99279.09
